Skip Navigation Links
NOAA logo - Click to go to the NOAA homepage
NOAA's National Weather Service
Alaska Aviation Weather Unit
  NWS logo - Click to go to the NWS homepage
Left Navbar Graphic     22 AKDT = 06 GMT

   
NOAA is celebrating 200 years of science, service, and stewardship. Visit the NOAA 200th celebration Web site to learn more.
USA.gov is the U.S. Government's official Web portal to all Federal, state and local government Web resources and services.
Facebook
NWS on Facebook

Important Change Regarding the AAWU Web Presence

 

Over the last several months, the AAWU has been working to navigate its webpages to a nationally supported server. Security, as well as other needs, have necessitated the change.  We have been given an extension for the site changeover while we diligently work at addressing feedback received. As of July 14, 2017, aawu.arh.noaa.gov will be discontinued. The new AAWU web address is weather.gov/aawu. It is now live and will run in-parallel with the old site until it is discontinued on July 14, 2017. Please continue to send any feedback or questions regarding the new webpages to nws.ar.aawu.webauthors@noaa.gov.  Thank you for your patience during this time of transition.
AAWU Home :: Display TAF Add Bookmark
TAF PAGS 260545Z 2606/2706 VRB04KT P6SM OVC040
     FM261100 32005KT 6SM -RA SCT015 OVC025
     FM270300 VRB03KT P6SM -RA BKN015 OVC025
      AMD LTD TO CLD VIS AND WIND=

METAR PAGS 260156Z AUTO 00000KT 10SM FEW033 OVC044 16/12 A3001 RMK AO2 SLP162 T01610117= METAR PAGS 260256Z AUTO 17003KT 10SM SCT030 BKN044 OVC055 16/12 A3000 RMK AO2 SLP159 T01560117 56014= SPECI PAGS 260349Z AUTO 22004KT 10SM BKN017 BKN034 OVC050 14/12 A2999 RMK AO2= METAR PAGS 260356Z AUTO 23003KT 10SM BKN017 BKN042 OVC050 14/12 A2999 RMK AO2 SLP157 T01440122= SPECI PAGS 260412Z AUTO 24003KT 10SM FEW017 SCT039 OVC060 14/12 A2999 RMK AO2= METAR PAGS 260456Z AUTO 00000KT 10SM OVC060 14/12 A2998 RMK AO2 SLP153 T01440117= METAR PAGS 260556Z AUTO 21003KT 10SM FEW033 OVC055 13/11 A2998 RMK AO2 SLP151 T01280111 10161 20128 58007=
 Alaska TAF Map

NOAA's National Weather Service
Alaska Aviation Weather Unit
6930 Sand Lake Road
Anchorage, AK 99502-1845
Disclaimer
Credits
Glossary
Privacy Policy
About Us
Career Opportunities
Contact AAWU Internet Services Site last modified: April, 17th 2012